BGBW Airport Information

Runway Information
Runway 07 Length 6004 ft width 148 ft Elevation 11 ft Threshold N/A Heading 41
Runway 25 Length 6004 ft Width 148 ft Elevation 112 ft Threshold N/A Heading 221
Airport Frequencies
Type AFIS Name AFIS Frequency 119.1 MHZ
Airport Navaids
Type NDB Name Narsarsuaq Frequency 359 KHZ
Type DME Name Narsarsuaq Frequency 111850 KHZ
Airport Weather Information & NOTAM
ADDS - METARS form results

(1152 UTC 05 December 2022)
Data provider http://aviationweather.gov/metar/data/
 
Forecast for: BGBW (NARSSARSSUAQ , GL)
Text: TAF BGBW 051114Z 0512/0521 08015KT 9999 FEW100
Forecast period: 1200 to 1500 UTC 05 December 2022
Forecast type: FROM: standard forecast or significant change
Winds: from the E (80 degrees) at 17 MPH (15 knots; 7.7 m/s)
Visibility: 6 or more miles (10+ km)
Ceiling: at least 12,000 feet AGL
Clouds: few clouds at 10000 feet AGL
Weather: no significant weather forecast for this period
Text: BECMG 0515/0518 06008KT
Forecast period: 1500 to 2100 UTC 05 December 2022
Forecast type: BECOMING: Conditions expected to become as follows by 1800 UTC 05 December 2022
Winds: from the ENE (60 degrees) at 9 MPH (8 knots; 4.1 m/s)
Visibility: 6 or more miles (10+ km)
Ceiling: at least 12,000 feet AGL
Clouds: few clouds at 10000 feet AGL
Weather: no significant weather forecast for this period